createdAt,value
2017-07-30T00:00:20.993Z,1002.22
2017-07-30T00:01:20.980Z,1002.2
2017-07-30T00:02:20.956Z,1002.18
2017-07-30T00:03:20.942Z,1002.19
2017-07-30T00:04:20.916Z,1002.19
2017-07-30T00:05:20.949Z,1002.16
2017-07-30T00:06:20.881Z,1002.15
2017-07-30T00:07:20.861Z,1002.15
2017-07-30T00:08:20.891Z,1002.15
2017-07-30T00:09:20.824Z,1002.17
2017-07-30T00:10:20.805Z,1002.15
2017-07-30T00:11:20.783Z,1002.15
2017-07-30T00:12:20.773Z,1002.12
2017-07-30T00:13:20.753Z,1002.14
2017-07-30T00:14:20.740Z,1002.11
2017-07-30T00:15:20.707Z,1002.14
2017-07-30T00:16:20.693Z,1002.08
2017-07-30T00:17:20.679Z,1002.12
2017-07-30T00:18:20.652Z,1002.06
2017-07-30T00:19:20.634Z,1002.04
2017-07-30T00:20:20.616Z,1002.03
2017-07-30T00:21:20.594Z,1002.04
2017-07-30T00:22:20.579Z,1002.01
2017-07-30T00:23:20.559Z,1001.99
2017-07-30T00:24:20.541Z,1002.07
2017-07-30T00:25:20.524Z,1002.06
2017-07-30T00:26:20.501Z,1001.99
2017-07-30T00:27:20.482Z,1002
2017-07-30T00:28:20.461Z,1001.98
2017-07-30T00:29:20.446Z,1002.02
2017-07-30T00:30:20.422Z,1002.01
2017-07-30T00:31:20.410Z,1001.99
2017-07-30T00:32:20.387Z,1002.01
2017-07-30T00:33:20.368Z,1002.01
2017-07-30T00:34:20.351Z,1002.05
2017-07-30T00:35:20.333Z,1002.04
2017-07-30T00:36:20.315Z,1002.07
2017-07-30T00:37:20.293Z,1002.06
2017-07-30T00:38:20.275Z,1002.08
2017-07-30T00:39:20.255Z,1002.02
2017-07-30T00:40:20.237Z,1002
2017-07-30T00:41:20.218Z,1002.13
2017-07-30T00:42:20.206Z,1002.1
2017-07-30T00:43:20.179Z,1002.14
2017-07-30T00:44:20.162Z,1002.25
2017-07-30T00:45:20.158Z,1002.13
2017-07-30T00:46:20.124Z,1002.07
2017-07-30T00:47:20.102Z,1002.05
2017-07-30T00:48:20.088Z,1001.93
2017-07-30T00:49:20.067Z,1001.97
2017-07-30T00:50:20.049Z,1001.91
2017-07-30T00:51:20.031Z,1001.81
2017-07-30T00:52:20.015Z,1001.8
2017-07-30T00:53:19.991Z,1001.74
2017-07-30T00:54:19.969Z,1001.72
2017-07-30T00:55:19.948Z,1001.71
2017-07-30T00:56:19.935Z,1001.72
2017-07-30T00:57:19.914Z,1001.73
2017-07-30T00:58:19.895Z,1001.69
2017-07-30T00:59:19.875Z,1001.65
2017-07-30T01:00:19.856Z,1001.65
2017-07-30T01:01:19.835Z,1001.64
2017-07-30T01:02:19.820Z,1001.58
2017-07-30T01:03:19.801Z,1001.62
2017-07-30T01:04:19.780Z,1001.58
2017-07-30T01:05:19.762Z,1001.62
2017-07-30T01:06:19.750Z,1001.58
2017-07-30T01:07:19.722Z,1001.63
2017-07-30T01:08:19.702Z,1001.63
2017-07-30T01:09:19.684Z,1001.62
2017-07-30T01:10:19.664Z,1001.62
2017-07-30T01:11:19.645Z,1001.65
2017-07-30T01:12:19.627Z,1001.57
2017-07-30T01:13:19.604Z,1001.6
2017-07-30T01:14:19.587Z,1001.59
2017-07-30T01:15:19.568Z,1001.59
2017-07-30T01:16:19.546Z,1001.64
2017-07-30T01:17:19.530Z,1001.63
2017-07-30T01:18:19.510Z,1001.61
2017-07-30T01:19:19.489Z,1001.68
2017-07-30T01:20:19.469Z,1001.68
2017-07-30T01:21:19.453Z,1001.68
2017-07-30T01:22:19.432Z,1001.67
2017-07-30T01:23:19.414Z,1001.68
2017-07-30T01:24:19.391Z,1001.63
2017-07-30T01:25:19.377Z,1001.6
2017-07-30T01:26:19.356Z,1001.56
2017-07-30T01:27:19.343Z,1001.54
2017-07-30T01:28:19.316Z,1001.53
2017-07-30T01:29:19.301Z,1001.54
2017-07-30T01:30:19.277Z,1001.48
2017-07-30T01:31:19.258Z,1001.52
2017-07-30T01:32:19.239Z,1001.48
2017-07-30T01:33:19.220Z,1001.48
2017-07-30T01:34:19.251Z,1001.46
2017-07-30T01:35:19.231Z,1001.42
2017-07-30T01:36:19.163Z,1001.41
2017-07-30T01:37:19.145Z,1001.4
2017-07-30T01:38:19.126Z,1001.37
2017-07-30T01:39:19.109Z,1001.35
2017-07-30T01:40:19.085Z,1001.28
2017-07-30T01:41:19.065Z,1001.27
2017-07-30T01:42:19.048Z,1001.32
2017-07-30T01:43:19.028Z,1001.29
2017-07-30T01:44:19.011Z,1001.26
2017-07-30T01:45:18.991Z,1001.26
2017-07-30T01:46:18.976Z,1001.3
2017-07-30T01:47:18.950Z,1001.29
2017-07-30T01:48:18.938Z,1001.26
2017-07-30T01:49:18.916Z,1001.25
2017-07-30T01:50:18.894Z,1001.28
2017-07-30T01:51:18.872Z,1001.29
2017-07-30T01:52:18.853Z,1001.28
2017-07-30T01:53:18.835Z,1001.26
2017-07-30T01:54:18.816Z,1001.24
2017-07-30T01:55:18.803Z,1001.24
2017-07-30T01:56:18.778Z,1001.26
2017-07-30T01:57:18.758Z,1001.25
2017-07-30T01:58:18.739Z,1001.26
2017-07-30T01:59:18.722Z,1001.21
2017-07-30T02:00:18.703Z,1001.16
2017-07-30T02:01:18.678Z,1001.2
2017-07-30T02:02:18.663Z,1001.12
2017-07-30T02:03:18.650Z,1001.17
2017-07-30T02:04:18.622Z,1001.18
2017-07-30T02:05:18.605Z,1001.17
2017-07-30T02:06:18.587Z,1001.17
2017-07-30T02:07:18.566Z,1001.16
2017-07-30T02:08:18.548Z,1001.16
2017-07-30T02:09:18.532Z,1001.14
2017-07-30T02:10:18.507Z,1001.14
2017-07-30T02:11:18.492Z,1001.1
2017-07-30T02:12:18.471Z,1001.1
2017-07-30T02:13:18.451Z,1001.13
2017-07-30T02:14:18.432Z,1001.08
2017-07-30T02:15:18.412Z,1001.08
2017-07-30T02:16:18.398Z,1001.04
2017-07-30T02:17:18.378Z,1001.07
2017-07-30T02:18:18.355Z,1001.06
2017-07-30T02:19:18.336Z,1001.05
2017-07-30T02:20:18.318Z,1001.05
2017-07-30T02:21:18.296Z,1001.02
2017-07-30T02:22:18.328Z,1000.95
2017-07-30T02:23:18.259Z,1001.01
2017-07-30T02:24:18.244Z,1000.96
2017-07-30T02:25:18.218Z,1000.93
2017-07-30T02:26:18.201Z,1000.88
2017-07-30T02:27:18.232Z,1000.84
2017-07-30T02:28:18.162Z,1000.86
2017-07-30T02:29:18.141Z,1000.8
2017-07-30T02:30:18.135Z,1000.81
2017-07-30T02:31:18.109Z,1000.8
2017-07-30T02:32:18.085Z,1000.83
2017-07-30T02:33:18.065Z,1000.82
2017-07-30T02:34:18.048Z,1000.83
2017-07-30T02:35:18.078Z,1000.86
2017-07-30T02:36:18.007Z,1000.87
2017-07-30T02:37:17.993Z,1000.87
2017-07-30T02:38:17.971Z,1000.84
2017-07-30T02:39:17.950Z,1000.87
2017-07-30T02:40:17.930Z,1000.84
2017-07-30T02:41:17.911Z,1000.85
2017-07-30T02:42:17.892Z,1000.83
2017-07-30T02:43:17.875Z,1000.82
2017-07-30T02:44:17.853Z,1000.76
2017-07-30T02:45:17.834Z,1000.78
2017-07-30T02:46:17.815Z,1000.82
2017-07-30T02:47:17.795Z,1000.78
2017-07-30T02:48:17.777Z,1000.8
2017-07-30T02:49:17.757Z,1000.77
2017-07-30T02:50:17.738Z,1000.76
2017-07-30T02:51:17.717Z,1000.79
2017-07-30T02:52:17.702Z,1000.76
2017-07-30T02:53:17.682Z,1000.76
2017-07-30T02:54:17.659Z,1000.71
2017-07-30T02:55:17.890Z,1000.73
2017-07-30T02:56:17.623Z,1000.67
2017-07-30T02:57:17.604Z,1000.63
2017-07-30T02:58:17.583Z,1000.62
2017-07-30T02:59:17.565Z,1000.58
2017-07-30T03:00:17.546Z,1000.59
2017-07-30T03:01:17.525Z,1000.64
2017-07-30T03:02:17.518Z,1000.61
2017-07-30T03:03:17.488Z,1000.61
2017-07-30T03:04:17.471Z,1000.59
2017-07-30T03:05:17.450Z,1000.56
2017-07-30T03:06:17.429Z,1000.59
2017-07-30T03:07:17.412Z,1000.54
2017-07-30T03:08:17.395Z,1000.54
2017-07-30T03:09:17.373Z,1000.52
2017-07-30T03:10:17.352Z,1000.5
2017-07-30T03:11:17.332Z,1000.52
2017-07-30T03:12:17.313Z,1000.48
2017-07-30T03:13:17.296Z,1000.47
2017-07-30T03:14:17.275Z,1000.44
2017-07-30T03:15:17.260Z,1000.4
2017-07-30T03:16:17.235Z,1000.39
2017-07-30T03:17:17.221Z,1000.41
2017-07-30T03:18:17.198Z,1000.4
2017-07-30T03:19:17.180Z,1000.37
2017-07-30T03:20:17.157Z,1000.36
2017-07-30T03:21:17.141Z,1000.35
2017-07-30T03:22:17.122Z,1000.3
2017-07-30T03:23:17.103Z,1000.31
2017-07-30T03:24:17.083Z,1000.32
2017-07-30T03:25:17.065Z,1000.3
2017-07-30T03:26:17.046Z,1000.33
2017-07-30T03:27:17.026Z,1000.3
2017-07-30T03:28:17.006Z,1000.35
2017-07-30T03:29:16.987Z,1000.29
2017-07-30T03:30:16.968Z,1000.27
2017-07-30T03:31:16.949Z,1000.22
2017-07-30T03:32:16.931Z,1000.25
2017-07-30T03:33:16.909Z,1000.2
2017-07-30T03:34:16.891Z,1000.18
2017-07-30T03:35:16.871Z,1000.17
2017-07-30T03:36:16.854Z,1000.2
2017-07-30T03:37:16.833Z,1000.14
2017-07-30T03:38:16.815Z,1000.13
2017-07-30T03:39:16.790Z,1000.08
2017-07-30T03:40:16.778Z,1000.07
2017-07-30T03:41:16.756Z,1000.08
2017-07-30T03:42:16.738Z,1000.11
2017-07-30T03:43:16.718Z,1000.08
2017-07-30T03:44:16.702Z,1000.08
2017-07-30T03:45:16.683Z,1000.09
2017-07-30T03:46:16.664Z,1000.13
2017-07-30T03:47:16.641Z,1000.16
2017-07-30T03:48:16.621Z,1000.18
2017-07-30T03:49:16.602Z,1000.15
2017-07-30T03:50:16.583Z,1000.1
2017-07-30T03:51:16.564Z,1000.05
2017-07-30T03:52:16.545Z,1000.02
2017-07-30T03:53:16.527Z,1000
2017-07-30T03:54:16.508Z,1000.04
2017-07-30T03:55:16.487Z,1000
2017-07-30T03:56:16.474Z,1000.06
2017-07-30T03:57:16.449Z,1000.09
2017-07-30T03:58:16.433Z,1000.06
2017-07-30T03:59:16.412Z,1000.09
2017-07-30T04:00:16.391Z,1000.07
2017-07-30T04:01:16.376Z,1000.05
2017-07-30T04:02:16.353Z,1000.03
2017-07-30T04:03:16.334Z,1000.05
2017-07-30T04:04:16.314Z,1000.04
2017-07-30T04:05:16.295Z,1000.08
2017-07-30T04:06:16.276Z,1000.05
2017-07-30T04:07:16.254Z,1000.06
2017-07-30T04:08:16.237Z,1000.13
2017-07-30T04:09:16.217Z,1000.1
2017-07-30T04:10:16.199Z,1000.13
2017-07-30T04:11:16.187Z,1000.13
2017-07-30T04:12:16.159Z,1000.09
2017-07-30T04:13:16.140Z,1000.07
2017-07-30T04:14:16.120Z,999.99
2017-07-30T04:15:16.101Z,1000.03
2017-07-30T04:16:16.080Z,1000.02
2017-07-30T04:17:16.063Z,1000.06
2017-07-30T04:18:16.046Z,1000.04
2017-07-30T04:19:16.032Z,1000.04
2017-07-30T04:20:16.007Z,1000.01
2017-07-30T04:21:15.989Z,999.96
2017-07-30T04:22:15.968Z,999.96
2017-07-30T04:23:15.949Z,999.92
2017-07-30T04:24:15.928Z,999.96
2017-07-30T04:25:15.910Z,999.95
2017-07-30T04:26:15.894Z,999.98
2017-07-30T04:27:15.872Z,999.98
2017-07-30T04:28:15.855Z,1000.02
2017-07-30T04:29:15.834Z,999.98
2017-07-30T04:30:15.815Z,999.98
2017-07-30T04:31:15.794Z,1000.03
2017-07-30T04:32:15.980Z,1000
2017-07-30T04:33:15.757Z,999.96
2017-07-30T04:34:15.738Z,999.96
2017-07-30T04:35:15.720Z,999.96
2017-07-30T04:36:15.705Z,999.93
2017-07-30T04:37:15.685Z,999.9
2017-07-30T04:38:15.661Z,999.88
2017-07-30T04:39:15.646Z,999.91
2017-07-30T04:40:15.622Z,999.88
2017-07-30T04:41:15.855Z,999.81
2017-07-30T04:42:15.586Z,999.83
2017-07-30T04:43:15.567Z,999.85
2017-07-30T04:44:15.547Z,999.87
2017-07-30T04:45:15.528Z,999.83
2017-07-30T04:46:15.509Z,999.83
2017-07-30T04:47:15.491Z,999.9
2017-07-30T04:48:15.481Z,999.87
2017-07-30T04:49:15.451Z,999.92
2017-07-30T04:50:15.436Z,999.9
2017-07-30T04:51:15.413Z,999.88
2017-07-30T04:52:15.394Z,999.88
2017-07-30T04:53:15.382Z,999.86
2017-07-30T04:54:15.361Z,999.89
2017-07-30T04:55:15.344Z,999.85
2017-07-30T04:56:15.319Z,999.84
2017-07-30T04:57:15.299Z,999.88
2017-07-30T04:58:15.282Z,999.81
2017-07-30T04:59:15.263Z,999.81
2017-07-30T05:00:15.245Z,999.79
2017-07-30T05:01:15.227Z,999.79
2017-07-30T05:02:15.207Z,999.79
2017-07-30T05:03:15.186Z,999.74
2017-07-30T05:04:15.168Z,999.73
2017-07-30T05:05:15.156Z,999.74
2017-07-30T05:06:15.129Z,999.73
2017-07-30T05:07:15.162Z,999.74
2017-07-30T05:08:15.094Z,999.77
2017-07-30T05:09:15.077Z,999.77
2017-07-30T05:10:15.057Z,999.73
2017-07-30T05:11:15.036Z,999.75
2017-07-30T05:12:15.018Z,999.71
2017-07-30T05:13:14.998Z,999.71
2017-07-30T05:14:14.979Z,999.73
2017-07-30T05:15:14.958Z,999.71
2017-07-30T05:16:14.941Z,999.75
2017-07-30T05:17:14.923Z,999.7
2017-07-30T05:18:14.907Z,999.75
2017-07-30T05:19:14.886Z,999.72
2017-07-30T05:20:14.866Z,999.69
2017-07-30T05:21:14.846Z,999.71
2017-07-30T05:22:14.830Z,999.7
2017-07-30T05:23:14.811Z,999.7
2017-07-30T05:24:14.791Z,999.72
2017-07-30T05:25:14.772Z,999.74
2017-07-30T05:26:14.758Z,999.66
2017-07-30T05:27:14.735Z,999.69
2017-07-30T05:28:14.718Z,999.65
2017-07-30T05:29:14.699Z,999.66
2017-07-30T05:30:14.680Z,999.7
2017-07-30T05:31:14.662Z,999.69
2017-07-30T05:32:14.641Z,999.66
2017-07-30T05:33:14.624Z,999.68
2017-07-30T05:34:14.607Z,999.67
2017-07-30T05:35:14.586Z,999.7
2017-07-30T05:36:14.618Z,999.69
2017-07-30T05:37:14.551Z,999.67
2017-07-30T05:38:14.532Z,999.66
2017-07-30T05:39:14.513Z,999.63
2017-07-30T05:40:14.495Z,999.64
2017-07-30T05:41:14.478Z,999.64
2017-07-30T05:42:14.507Z,999.62
2017-07-30T05:43:14.440Z,999.63
2017-07-30T05:44:14.423Z,999.63
2017-07-30T05:45:14.405Z,999.67
2017-07-30T05:46:14.384Z,999.6
2017-07-30T05:47:14.369Z,999.65
2017-07-30T05:48:14.350Z,999.65
2017-07-30T05:49:14.335Z,999.63
2017-07-30T05:50:14.313Z,999.68
2017-07-30T05:51:14.296Z,999.65
2017-07-30T05:52:14.279Z,999.68
2017-07-30T05:53:14.258Z,999.68
2017-07-30T05:54:14.243Z,999.66
2017-07-30T05:55:14.223Z,999.71
2017-07-30T05:56:14.203Z,999.69
2017-07-30T05:57:14.187Z,999.68
2017-07-30T05:58:14.170Z,999.72
2017-07-30T05:59:14.154Z,999.67
2017-07-30T06:00:14.133Z,999.71
2017-07-30T06:01:14.114Z,999.71
2017-07-30T06:02:14.097Z,999.71
2017-07-30T06:03:14.079Z,999.69
2017-07-30T06:04:14.060Z,999.72
2017-07-30T06:05:14.045Z,999.71
2017-07-30T06:06:14.024Z,999.69
2017-07-30T06:07:14.007Z,999.71
2017-07-30T06:08:13.987Z,999.72
2017-07-30T06:09:13.971Z,999.68
2017-07-30T06:10:13.953Z,999.73
2017-07-30T06:11:13.935Z,999.67
2017-07-30T06:12:13.916Z,999.7
2017-07-30T06:13:13.900Z,999.72
2017-07-30T06:14:13.883Z,999.73
2017-07-30T06:15:13.863Z,999.72
2017-07-30T06:16:14.098Z,999.73
2017-07-30T06:17:13.831Z,999.68
2017-07-30T06:18:13.815Z,999.74
2017-07-30T06:19:13.796Z,999.76
2017-07-30T06:20:13.781Z,999.73
2017-07-30T06:21:13.763Z,999.75
2017-07-30T06:22:13.744Z,999.8
2017-07-30T06:23:13.727Z,999.82
2017-07-30T06:24:13.711Z,999.8
2017-07-30T06:25:13.692Z,999.81
2017-07-30T06:26:13.678Z,999.77
2017-07-30T06:27:13.660Z,999.78
2017-07-30T06:28:13.642Z,999.76
2017-07-30T06:29:13.626Z,999.79
2017-07-30T06:30:13.658Z,999.73
2017-07-30T06:31:13.592Z,999.66
2017-07-30T06:32:13.575Z,999.67
2017-07-30T06:33:13.562Z,999.65
2017-07-30T06:34:13.592Z,999.57
2017-07-30T06:35:13.526Z,999.56
2017-07-30T06:36:13.518Z,999.59
2017-07-30T06:37:13.492Z,999.59
2017-07-30T06:38:13.477Z,999.6
2017-07-30T06:39:13.464Z,999.58
2017-07-30T06:40:13.449Z,999.59
2017-07-30T06:41:13.433Z,999.61
2017-07-30T06:42:13.418Z,999.59
2017-07-30T06:43:13.405Z,999.58
2017-07-30T06:44:13.389Z,999.59
2017-07-30T06:45:13.377Z,999.48
2017-07-30T06:46:13.363Z,999.47
2017-07-30T06:47:13.350Z,999.51
2017-07-30T06:48:13.337Z,999.48
2017-07-30T06:49:13.323Z,999.46
2017-07-30T06:50:13.316Z,999.53
2017-07-30T06:51:13.299Z,999.56
2017-07-30T06:52:13.285Z,999.52
2017-07-30T06:53:13.273Z,999.5
2017-07-30T06:54:13.266Z,999.47
2017-07-30T06:55:13.250Z,999.5
2017-07-30T06:56:13.238Z,999.43
2017-07-30T06:57:13.229Z,999.51
2017-07-30T06:58:13.215Z,999.54
2017-07-30T06:59:13.204Z,999.48
2017-07-30T07:00:13.189Z,999.48
2017-07-30T07:01:13.179Z,999.53
2017-07-30T07:02:13.168Z,999.5
2017-07-30T07:03:13.153Z,999.56
2017-07-30T07:04:13.148Z,999.51
2017-07-30T07:05:13.130Z,999.57
2017-07-30T07:06:13.118Z,999.56
2017-07-30T07:07:13.104Z,999.56
2017-07-30T07:08:13.111Z,999.6
2017-07-30T07:09:13.082Z,999.64
2017-07-30T07:10:13.069Z,999.66
2017-07-30T07:11:13.259Z,999.64
2017-07-30T07:12:13.047Z,999.67
2017-07-30T07:13:13.031Z,999.67
2017-07-30T07:14:13.017Z,999.69
2017-07-30T07:15:13.010Z,999.69
2017-07-30T07:16:12.991Z,999.71
2017-07-30T07:17:12.978Z,999.73
2017-07-30T07:18:12.967Z,999.7
2017-07-30T07:19:12.957Z,999.72
2017-07-30T07:20:12.941Z,999.75
2017-07-30T07:21:12.925Z,999.74
2017-07-30T07:22:12.914Z,999.76
2017-07-30T07:23:12.898Z,999.75
2017-07-30T07:24:12.887Z,999.75
2017-07-30T07:25:12.875Z,999.83
2017-07-30T07:26:12.861Z,999.84
2017-07-30T07:27:12.847Z,999.88
2017-07-30T07:28:12.834Z,999.83
2017-07-30T07:29:12.825Z,999.87
2017-07-30T07:30:12.810Z,999.89
2017-07-30T07:31:12.844Z,999.93
2017-07-30T07:32:12.782Z,999.88
2017-07-30T07:33:12.772Z,999.98
2017-07-30T07:34:12.757Z,999.92
2017-07-30T07:35:12.742Z,999.89
2017-07-30T07:36:12.728Z,999.94
2017-07-30T07:37:12.719Z,999.93
2017-07-30T07:38:12.704Z,999.95
2017-07-30T07:39:12.690Z,999.97
2017-07-30T07:40:12.676Z,1000.01
2017-07-30T07:41:12.663Z,1000.06
2017-07-30T07:42:12.651Z,1000.11
2017-07-30T07:43:12.638Z,1000.06
2017-07-30T07:44:12.628Z,1000.11
2017-07-30T07:45:12.612Z,1000.04
2017-07-30T07:46:12.601Z,1000.16
2017-07-30T07:47:12.589Z,1000.1
2017-07-30T07:48:12.584Z,1000.16
2017-07-30T07:49:12.567Z,1000.15
2017-07-30T07:50:12.555Z,1000.19
2017-07-30T07:51:12.542Z,1000.18
2017-07-30T07:52:12.531Z,1000.26
2017-07-30T07:53:12.517Z,1000.32
2017-07-30T07:54:12.507Z,1000.32
2017-07-30T07:55:12.491Z,1000.25
2017-07-30T07:56:12.485Z,1000.32
2017-07-30T07:57:12.467Z,1000.3
2017-07-30T07:58:12.454Z,1000.27
2017-07-30T07:59:12.439Z,1000.39
2017-07-30T08:00:12.430Z,1000.38
2017-07-30T08:01:12.463Z,1000.35
2017-07-30T08:02:12.403Z,1000.4
2017-07-30T08:03:12.387Z,1000.36
2017-07-30T08:04:12.374Z,1000.35
2017-07-30T08:05:12.359Z,1000.38
2017-07-30T08:06:12.350Z,1000.42
2017-07-30T08:07:12.333Z,1000.37
2017-07-30T08:08:12.323Z,1000.4
2017-07-30T08:09:12.305Z,1000.41
2017-07-30T08:10:12.290Z,1000.4
2017-07-30T08:11:12.279Z,1000.4
2017-07-30T08:12:12.269Z,1000.39
2017-07-30T08:13:12.252Z,1000.45
2017-07-30T08:14:12.252Z,1000.4
2017-07-30T08:15:12.220Z,1000.46
2017-07-30T08:16:12.206Z,1000.37
2017-07-30T08:17:12.194Z,1000.43
2017-07-30T08:18:12.182Z,1000.42
2017-07-30T08:19:12.167Z,1000.47
2017-07-30T08:20:12.153Z,1000.36
2017-07-30T08:21:12.142Z,1000.5
2017-07-30T08:22:12.130Z,1000.5
2017-07-30T08:23:12.120Z,1000.49
2017-07-30T08:24:12.100Z,1000.53
2017-07-30T08:25:12.090Z,1000.47
2017-07-30T08:26:12.080Z,1000.47
2017-07-30T08:27:12.062Z,1000.53
2017-07-30T08:28:12.051Z,1000.53
2017-07-30T08:29:12.036Z,1000.52
2017-07-30T08:30:12.021Z,1000.55
2017-07-30T08:31:12.016Z,1000.54
2017-07-30T08:32:11.999Z,1000.5
2017-07-30T08:33:11.984Z,1000.49
2017-07-30T08:34:11.968Z,1000.58
2017-07-30T08:35:11.959Z,1000.51
2017-07-30T08:36:11.941Z,1000.55
2017-07-30T08:37:11.928Z,1000.53
2017-07-30T08:38:11.917Z,1000.56
2017-07-30T08:39:11.917Z,1000.54
2017-07-30T08:40:11.889Z,1000.53
2017-07-30T08:41:11.874Z,1000.55
2017-07-30T08:42:11.859Z,1000.58
2017-07-30T08:43:11.851Z,1000.59
2017-07-30T08:44:11.831Z,1000.59
2017-07-30T08:45:11.817Z,1000.55
2017-07-30T08:46:11.804Z,1000.57
2017-07-30T08:47:11.790Z,1000.53
2017-07-30T08:48:11.778Z,1000.58
2017-07-30T08:49:11.774Z,1000.59
2017-07-30T08:50:11.754Z,1000.65
2017-07-30T08:51:11.739Z,1000.63
2017-07-30T08:52:11.722Z,1000.59
2017-07-30T08:53:11.710Z,1000.66
2017-07-30T08:54:11.697Z,1000.69
2017-07-30T08:55:11.686Z,1000.69
2017-07-30T08:56:11.666Z,1000.72
2017-07-30T08:57:11.656Z,1000.67
2017-07-30T08:58:11.643Z,1000.65
2017-07-30T08:59:11.633Z,1000.75
2017-07-30T09:00:11.620Z,1000.64
2017-07-30T09:01:11.599Z,1000.72
2017-07-30T09:02:11.589Z,1000.69
2017-07-30T09:03:11.573Z,1000.67
2017-07-30T09:04:11.566Z,1000.66
2017-07-30T09:05:11.546Z,1000.81
2017-07-30T09:06:11.585Z,1000.79
2017-07-30T09:07:11.526Z,1000.77
2017-07-30T09:08:11.507Z,1000.82
2017-07-30T09:09:11.498Z,1000.77
2017-07-30T09:10:11.480Z,1000.78
2017-07-30T09:11:11.568Z,1000.74
2017-07-30T09:12:11.452Z,1000.81
2017-07-30T09:13:11.441Z,1000.82
2017-07-30T09:14:11.426Z,1000.75
2017-07-30T09:15:11.414Z,1000.78
2017-07-30T09:16:11.399Z,1000.79
2017-07-30T09:17:11.386Z,1000.79
2017-07-30T09:18:11.368Z,1000.75
2017-07-30T09:19:11.351Z,1000.86
2017-07-30T09:20:11.338Z,1000.79
2017-07-30T09:21:11.323Z,1000.86
2017-07-30T09:22:11.335Z,1000.88
2017-07-30T09:23:11.296Z,1000.87
2017-07-30T09:24:11.277Z,1000.89
2017-07-30T09:25:11.262Z,1000.94
2017-07-30T09:26:11.249Z,1000.92
2017-07-30T09:27:11.234Z,1000.92
2017-07-30T09:28:11.268Z,1000.91
2017-07-30T09:29:11.204Z,1000.91
2017-07-30T09:30:11.188Z,1000.96
2017-07-30T09:31:11.178Z,1000.87
2017-07-30T09:32:11.161Z,1000.85
2017-07-30T09:33:11.149Z,1000.87
2017-07-30T09:34:11.131Z,1000.84
2017-07-30T09:35:11.114Z,1000.83
2017-07-30T09:36:11.100Z,1000.81
2017-07-30T09:37:11.088Z,1000.87
2017-07-30T09:38:11.072Z,1000.93
2017-07-30T09:39:11.057Z,1000.83
2017-07-30T09:40:11.045Z,1000.82
2017-07-30T09:41:11.030Z,1000.83
2017-07-30T09:42:11.019Z,1000.74
2017-07-30T09:43:11.003Z,1000.8
2017-07-30T09:44:10.994Z,1000.72
2017-07-30T09:45:10.974Z,1000.77
2017-07-30T09:46:10.964Z,1000.72
2017-07-30T09:47:10.953Z,1000.75
2017-07-30T09:48:10.942Z,1000.76
2017-07-30T09:49:10.933Z,1000.76
2017-07-30T09:50:10.918Z,1000.64
2017-07-30T09:51:10.908Z,1000.61
2017-07-30T09:52:10.901Z,1000.62
2017-07-30T09:53:10.890Z,1000.58
2017-07-30T09:54:10.879Z,1000.56
2017-07-30T09:55:10.875Z,1000.67
2017-07-30T09:56:10.859Z,1000.63
2017-07-30T09:57:10.849Z,1000.65
2017-07-30T09:58:10.839Z,1000.75
2017-07-30T09:59:10.831Z,1000.73
2017-07-30T10:00:10.816Z,1000.7
2017-07-30T10:01:10.808Z,1000.7
2017-07-30T10:02:10.795Z,1000.74
2017-07-30T10:03:10.788Z,1000.73
2017-07-30T10:04:10.771Z,1000.7
2017-07-30T10:05:10.758Z,1000.69
2017-07-30T10:06:10.750Z,1000.73
2017-07-30T10:07:10.739Z,1000.72
2017-07-30T10:08:10.726Z,1000.65
2017-07-30T10:09:10.713Z,1000.63
2017-07-30T10:10:10.708Z,1000.76
2017-07-30T10:11:10.691Z,1000.65
2017-07-30T10:12:10.679Z,1000.66
2017-07-30T10:13:10.662Z,1000.83
2017-07-30T10:14:10.655Z,1000.67
2017-07-30T10:15:10.645Z,1000.69
2017-07-30T10:16:10.638Z,1000.67
2017-07-30T10:17:10.672Z,1000.64
2017-07-30T10:18:10.610Z,1000.59
2017-07-30T10:19:10.607Z,1000.74
2017-07-30T10:20:10.585Z,1000.65
2017-07-30T10:21:10.577Z,1000.6
2017-07-30T10:22:10.563Z,1000.74
2017-07-30T10:23:10.581Z,1000.75
2017-07-30T10:24:10.548Z,1000.73
2017-07-30T10:25:10.532Z,1000.86
2017-07-30T10:26:10.518Z,1000.83
2017-07-30T10:27:10.504Z,1000.85
2017-07-30T10:28:10.498Z,1000.78
2017-07-30T10:29:10.484Z,1000.79
2017-07-30T10:30:10.472Z,1000.83
2017-07-30T10:31:10.462Z,1000.8
2017-07-30T10:32:10.446Z,1000.84
2017-07-30T10:33:10.435Z,1000.8
2017-07-30T10:34:10.427Z,1000.75
2017-07-30T10:35:10.411Z,1000.79
2017-07-30T10:36:10.405Z,1000.75
2017-07-30T10:37:10.386Z,1000.75
2017-07-30T10:38:10.375Z,1000.71
2017-07-30T10:39:10.366Z,1000.8
2017-07-30T10:40:10.351Z,1000.86
2017-07-30T10:41:10.340Z,1000.88
2017-07-30T10:42:10.328Z,1000.9
2017-07-30T10:43:10.311Z,1000.87
2017-07-30T10:44:10.304Z,1000.85
2017-07-30T10:45:10.290Z,1000.89
2017-07-30T10:46:10.277Z,1000.89
2017-07-30T10:47:10.262Z,1000.9
2017-07-30T10:48:10.255Z,1000.86
2017-07-30T10:49:10.239Z,1000.79
2017-07-30T10:50:10.226Z,1000.74
2017-07-30T10:51:10.217Z,1000.8
2017-07-30T10:52:10.193Z,1000.77
2017-07-30T10:53:10.183Z,1000.74
2017-07-30T10:54:10.170Z,1000.76
2017-07-30T10:55:10.157Z,1000.75
2017-07-30T10:56:10.153Z,1000.78
2017-07-30T10:57:10.131Z,1000.82
2017-07-30T10:58:10.119Z,1000.81
2017-07-30T10:59:10.109Z,1000.81
2017-07-30T11:00:10.093Z,1000.79
2017-07-30T11:01:10.080Z,1000.79
2017-07-30T11:02:10.070Z,1000.78
2017-07-30T11:03:10.055Z,1000.81
2017-07-30T11:04:10.042Z,1000.74
2017-07-30T11:05:10.031Z,1000.75
2017-07-30T11:06:10.019Z,1000.76
2017-07-30T11:07:10.012Z,1000.72
2017-07-30T11:08:09.996Z,1000.8
2017-07-30T11:09:09.983Z,1000.72
2017-07-30T11:10:09.973Z,1000.76
2017-07-30T11:11:09.960Z,1000.72
2017-07-30T11:12:09.999Z,1000.73
2017-07-30T11:13:09.939Z,1000.73
2017-07-30T11:14:10.129Z,1000.75
2017-07-30T11:15:09.914Z,1000.72
2017-07-30T11:16:09.905Z,1000.76
2017-07-30T11:17:09.894Z,1000.7
2017-07-30T11:18:09.884Z,1000.75
2017-07-30T11:19:09.873Z,1000.73
2017-07-30T11:20:09.861Z,1000.7
2017-07-30T11:21:09.854Z,1000.7
2017-07-30T11:22:09.842Z,1000.83
2017-07-30T11:23:09.833Z,1000.75
2017-07-30T11:24:09.817Z,1000.78
2017-07-30T11:25:09.804Z,1000.76
2017-07-30T11:26:09.793Z,1000.8
2017-07-30T11:27:09.780Z,1000.82
2017-07-30T11:28:09.769Z,1000.89
2017-07-30T11:29:09.763Z,1000.83
2017-07-30T11:30:09.744Z,1000.86
2017-07-30T11:31:09.735Z,1000.98
2017-07-30T11:32:09.722Z,1000.84
2017-07-30T11:33:09.710Z,1000.85
2017-07-30T11:34:09.698Z,1000.89
2017-07-30T11:35:09.687Z,1000.86
2017-07-30T11:36:09.680Z,1000.93
2017-07-30T11:37:09.662Z,1000.94
2017-07-30T11:38:09.650Z,1000.86
2017-07-30T11:39:09.637Z,1000.81
2017-07-30T11:40:09.626Z,1000.92
2017-07-30T11:41:09.617Z,1000.89
2017-07-30T11:42:09.600Z,1000.88
2017-07-30T11:43:09.588Z,1000.92
2017-07-30T11:44:09.579Z,1000.78
2017-07-30T11:45:09.564Z,1000.81
2017-07-30T11:46:09.551Z,1000.86
2017-07-30T11:47:09.537Z,1000.88
2017-07-30T11:48:09.529Z,1000.88
2017-07-30T11:49:09.513Z,1000.94
2017-07-30T11:50:09.504Z,1000.83
2017-07-30T11:51:09.486Z,1000.91
2017-07-30T11:52:09.478Z,1000.96
2017-07-30T11:53:09.511Z,1000.98
2017-07-30T11:54:09.450Z,1000.99
2017-07-30T11:55:09.436Z,1001.02
2017-07-30T11:56:09.421Z,1001.06
2017-07-30T11:57:09.407Z,1001.02
2017-07-30T11:58:09.394Z,1001.1
2017-07-30T11:59:09.379Z,1001.01
2017-07-30T12:00:09.366Z,1001.09
2017-07-30T12:01:09.354Z,1001.09
2017-07-30T12:02:09.339Z,1001.06
2017-07-30T12:03:09.324Z,1001.04
2017-07-30T12:04:09.311Z,1001.03
2017-07-30T12:05:09.294Z,1001.09
2017-07-30T12:06:09.280Z,1001.15
2017-07-30T12:07:09.265Z,1001.18
2017-07-30T12:08:09.252Z,1001.11
2017-07-30T12:09:09.244Z,1001.12
2017-07-30T12:10:09.222Z,1001.15
2017-07-30T12:11:09.210Z,1001.26
2017-07-30T12:12:09.193Z,1001.12
2017-07-30T12:13:09.380Z,1001.13
2017-07-30T12:14:09.161Z,1001.16